Archival Weather

Aeroparque Jorge Newbery

Aeroparque Jorge Newbery, Argentina (SABE)

Report from: Saturday, May 14, 2022 11:00 PM -03
Current time: Sunday, June 26, 2022 3:03 PM -03

Current weather
Weather history
Weather forecast

Temperature13.0°C (55.4°F)
Dew point3.0°C (37.4°F)
Winds 5 kts (2.6 m/s, 5.8 mph) Vrb
Winds variableWinds variable from South-Southeast (150°) to West-Southwest (240°)
Clouds Sky clear
Altimeter30.12 in.Hg (1020 mB)
Relative humidity51 %
Density altitude-352 ft. (-107 m)
Remarks Ceiling and visibility OK
Corrected report
No significant changes expected in the next two hours
Flight conditions Visual Meteorological Conditions
Raw dataCOR SABE 150200Z 20005KT 240V150 CAVOK 13/03 Q1020 NOSIG
An error has occurred. This application may no longer respond until reloaded. Reload 🗙